Time;durP1;ratioP1;P1;durP2;ratioP2;P2;SDS_P1;SDS_P2;PMS_P1;PMS_P2;Temp;Humidity;BMP_temperature;BMP_pressure;BME280_temperature;BME280_humidity;BME280_pressure;Samples;Min_cycle;Max_cycle;Signal;HPM_P1;HPM_P2
2023/10/18 00:09:48;;;;;;;2.50;1.03;;;;;;;;;;20880898;28;20221;-78
2023/10/18 00:19:49;;;;;;;1.57;0.93;;;;;;;;;;20868162;28;20688;-79
2023/10/18 00:29:55;;;;;;;1.07;0.80;;;;;;;;;;20869656;28;20255;-78
2023/10/18 00:39:57;;;;;;;1.17;0.60;;;;;;;;;;20868593;28;20217;-78
2023/10/18 00:49:59;;;;;;;2.10;1.03;;;;;;;;;;20884368;28;20222;-79
2023/10/18 01:00:06;;;;;;;1.57;0.90;;;;;;;;;;20900211;28;20267;-78
2023/10/18 01:10:09;;;;;;;1.80;0.83;;;;;;;;;;20875941;28;20275;-77
2023/10/18 01:20:57;;;;;;;2.07;1.10;;;;;;;;;;20879852;28;20275;-78
2023/10/18 01:30:33;;;;;;;1.70;1.00;;;;;;;;;;20877294;28;20591;-79
2023/10/18 01:40:44;;;;;;;1.30;0.63;;;;;;;;;;20860195;28;20355;-77
2023/10/18 01:50:47;;;;;;;1.60;1.10;;;;;;;;;;20880972;28;20282;-80
2023/10/18 02:00:53;;;;;;;1.70;1.00;;;7.20;99.90;;;;;;20870546;28;20295;-78
2023/10/18 02:10:55;;;;;;;1.40;0.80;;;;;;;;;;20846201;28;20279;-78
2023/10/18 02:20:58;;;;;;;2.20;1.10;;;;;;;;;;20868368;28;20279;-79
2023/10/18 02:31:10;;;;;;;1.83;1.03;;;;;;;;;;20878499;28;20230;-78
2023/10/18 02:41:15;;;;;;;1.00;0.60;;;;;;;;;;20909908;28;20225;-77
2023/10/18 02:51:22;;;;;;;1.53;0.90;;;7.00;99.90;;;;;;20912219;28;20802;-78
2023/10/18 03:01:25;;;;;;;1.80;1.20;;;;;;;;;;20898727;28;20260;-76
2023/10/18 03:11:27;;;;;;;1.63;0.80;;;;;;;;;;20835631;22;20293;-76
2023/10/18 03:21:32;;;;;;;1.53;0.97;;;;;;;;;;20674096;28;20253;-74
2023/10/18 03:31:36;;;;;;;1.57;1.03;;;;;;;;;;20664265;28;20232;-74
2023/10/18 03:41:43;;;;;;;1.80;1.00;;;;;;;;;;20647552;28;20585;-74
2023/10/18 03:51:46;;;;;;;1.53;0.90;;;;;;;;;;20644022;28;20220;-74
2023/10/18 04:02:07;;;;;;;1.90;1.30;;;;;;;;;;20662766;28;20575;-74
2023/10/18 04:12:09;;;;;;;4.53;1.07;;;;;;;;;;20646791;28;20293;-74
2023/10/18 04:22:13;;;;;;;2.30;1.23;;;;;;;;;;20659361;28;20718;-74
2023/10/18 04:32:20;;;;;;;1.60;1.00;;;;;;;;;;20603747;28;20231;-74
2023/10/18 04:42:24;;;;;;;2.20;0.80;;;;;;;;;;20619463;28;20239;-74
2023/10/18 04:52:28;;;;;;;2.00;0.87;;;;;;;;;;20646541;28;20243;-74
2023/10/18 05:02:38;;;;;;;1.57;0.97;;;;;;;;;;20628233;28;20287;-76
2023/10/18 05:12:47;;;;;;;3.67;1.80;;;;;;;;;;20669210;28;20274;-74
2023/10/18 05:23:17;;;;;;;1.43;0.60;;;;;;;;;;20646929;28;20223;-77
2023/10/18 05:33:15;;;;;;;2.00;1.23;;;;;;;;;;20623754;28;20282;-76
2023/10/18 05:43:23;;;;;;;1.40;1.10;;;;;;;;;;20653800;28;20255;-76
2023/10/18 05:53:29;;;;;;;1.93;1.17;;;;;;;;;;20634336;28;20278;-76
2023/10/18 06:03:41;;;;;;;4.57;1.50;;;;;;;;;;20668060;28;20263;-76
2023/10/18 06:13:44;;;;;;;3.20;1.53;;;;;;;;;;20653031;28;20765;-76
2023/10/18 06:23:55;;;;;;;2.77;1.80;;;;;;;;;;20661289;28;20247;-76
2023/10/18 06:33:59;;;;;;;1.70;1.20;;;;;;;;;;20656736;28;20277;-76
2023/10/18 06:44:01;;;;;;;5.80;1.53;;;;;;;;;;20659519;28;20278;-77
2023/10/18 06:54:06;;;;;;;1.73;1.07;;;;;;;;;;20665888;28;20279;-78
2023/10/18 07:04:18;;;;;;;3.13;1.77;;;6.70;99.90;;;;;;20680363;28;20254;-76
2023/10/18 07:14:20;;;;;;;2.67;1.40;;;;;;;;;;20631332;28;20258;-77
2023/10/18 07:24:24;;;;;;;3.17;1.27;;;6.80;99.90;;;;;;20673475;28;20216;-76
2023/10/18 07:34:31;;;;;;;2.10;1.37;;;;;;;;;;20657983;28;20219;-77
2023/10/18 07:44:33;;;;;;;3.03;1.37;;;;;;;;;;20629019;28;20254;-77
2023/10/18 07:54:35;;;;;;;4.47;1.93;;;;;;;;;;20642941;28;20227;-77
2023/10/18 08:04:37;;;;;;;3.10;1.80;;;;;;;;;;20656403;28;20208;-77
2023/10/18 08:14:39;;;;;;;3.03;1.70;;;;;;;;;;20639704;28;20700;-77
2023/10/18 08:24:41;;;;;;;3.97;2.20;;;;;;;;;;20646195;28;20584;-77
2023/10/18 08:34:43;;;;;;;4.17;2.30;;;;;;;;;;20637477;28;20254;-77
2023/10/18 08:44:46;;;;;;;2.93;1.83;;;;;;;;;;20655963;28;20561;-78
2023/10/18 08:54:54;;;;;;;2.97;2.03;;;8.90;99.90;;;;;;20657925;28;20214;-75
2023/10/18 09:04:58;;;;;;;3.40;2.13;;;;;;;;;;20621868;28;20211;-77
2023/10/18 09:15:25;;;;;;;3.30;2.20;;;;;;;;;;20658879;28;20220;-77
2023/10/18 09:25:25;;;;;;;3.63;2.13;;;;;;;;;;20668913;28;20737;-77
2023/10/18 09:35:27;;;;;;;5.43;2.03;;;;;;;;;;20644297;28;20219;-77
2023/10/18 09:45:28;;;;;;;3.57;2.33;;;;;;;;;;20639209;28;20227;-77
2023/10/18 09:55:30;;;;;;;6.17;2.50;;;;;;;;;;20648442;28;20220;-77
2023/10/18 10:05:40;;;;;;;4.30;2.97;;;;;;;;;;20666993;28;20246;-77
2023/10/18 10:15:45;;;;;;;3.53;2.50;;;;;;;;;;20663854;28;20284;-76
2023/10/18 10:26:00;;;;;;;4.37;2.70;;;;;;;;;;20651416;28;20776;-74
2023/10/18 10:36:05;;;;;;;4.67;2.40;;;;;;;;;;20663581;28;20594;-75
2023/10/18 10:46:35;;;;;;;3.00;2.33;;;;;;;;;;20648342;28;20244;-75
2023/10/18 10:56:48;;;;;;;3.87;2.40;;;10.00;99.90;;;;;;20657420;28;20224;-77
2023/10/18 11:06:56;;;;;;;6.33;2.20;;;;;;;;;;20662921;28;20219;-76
2023/10/18 11:17:03;;;;;;;3.20;2.10;;;;;;;;;;20628278;28;20352;-76
2023/10/18 11:27:08;;;;;;;3.13;1.93;;;;;;;;;;20644602;28;20270;-77
2023/10/18 11:37:13;;;;;;;5.97;2.30;;;;;;;;;;20623569;28;20282;-77
2023/10/18 11:47:21;;;;;;;3.17;2.13;;;;;;;;;;20630731;28;20282;-77
2023/10/18 11:57:29;;;;;;;3.80;2.30;;;;;;;;;;20660725;28;20266;-78
2023/10/18 12:07:32;;;;;;;3.67;2.20;;;;;;;;;;20662854;28;20636;-77
2023/10/18 12:17:34;;;;;;;3.77;1.93;;;;;;;;;;20730574;22;20249;-76
2023/10/18 12:27:36;;;;;;;2.23;1.37;;;;;;;;;;20788706;28;20211;-77
2023/10/18 12:37:40;;;;;;;2.27;1.40;;;;;;;;;;20720782;28;20693;-77
2023/10/18 12:47:42;;;;;;;2.83;1.60;;;;;;;;;;20699210;28;20273;-77
2023/10/18 12:57:49;;;;;;;2.53;1.40;;;;;;;;;;20720407;28;20219;-77
2023/10/18 13:07:53;;;;;;;2.53;1.10;;;;;;;;;;20726366;28;20253;-77
2023/10/18 13:17:54;;;;;;;2.83;1.20;;;;;;;;;;20724657;28;20273;-77
2023/10/18 13:28:05;;;;;;;1.57;1.07;;;;;;;;;;20755745;28;20215;-77
2023/10/18 13:38:07;;;;;;;2.70;1.30;;;10.90;99.90;;;;;;20720142;28;20292;-76
2023/10/18 13:48:11;;;;;;;3.00;1.60;;;;;;;;;;20720164;28;20238;-76
2023/10/18 13:58:13;;;;;;;2.10;1.07;;;;;;;;;;20700204;28;20218;-76
2023/10/18 14:08:18;;;;;;;1.83;1.30;;;;;;;;;;20695502;28;20246;-76
2023/10/18 14:18:20;;;;;;;1.60;1.00;;;;;;;;;;20736427;28;20642;-77
2023/10/18 14:28:24;;;;;;;3.63;1.80;;;;;;;;;;20694283;28;20243;-76
2023/10/18 14:38:28;;;;;;;5.13;1.53;;;;;;;;;;20755081;28;20280;-76
2023/10/18 14:48:30;;;;;;;3.27;1.40;;;;;;;;;;20749155;28;20215;-77
2023/10/18 14:58:31;;;;;;;3.00;1.57;;;11.40;99.90;;;;;;20724553;28;20211;-75
2023/10/18 15:08:36;;;;;;;1.77;0.90;;;;;;;;;;20699743;28;20262;-76
2023/10/18 15:18:38;;;;;;;1.53;0.90;;;;;;;;;;20744729;28;20277;-77
2023/10/18 15:28:40;;;;;;;4.03;1.03;;;;;;;;;;20711049;28;20207;-76
2023/10/18 15:38:45;;;;;;;2.40;1.13;;;;;;;;;;20734365;28;20251;-76
2023/10/18 15:48:47;;;;;;;2.17;1.30;;;11.40;99.90;;;;;;20734281;28;20223;-77
2023/10/18 15:58:49;;;;;;;3.47;1.40;;;;;;;;;;20742848;28;20265;-75
2023/10/18 16:08:53;;;;;;;3.00;1.80;;;11.50;99.90;;;;;;20741009;28;20568;-75
2023/10/18 16:18:57;;;;;;;1.90;1.10;;;;;;;;;;20723532;28;20219;-75
2023/10/18 16:28:59;;;;;;;1.80;1.10;;;;;;;;;;20729333;28;20222;-76
2023/10/18 16:39:03;;;;;;;1.33;0.87;;;;;;;;;;20715387;28;20300;-75
2023/10/18 16:49:09;;;;;;;1.80;1.30;;;;;;;;;;20717345;28;20288;-76
2023/10/18 16:59:11;;;;;;;2.83;1.30;;;;;;;;;;20721311;28;20219;-75
2023/10/18 17:09:19;;;;;;;2.33;1.10;;;;;;;;;;20722273;28;21100;-76
2023/10/18 17:19:21;;;;;;;2.97;1.27;;;;;;;;;;20722038;28;20344;-76
2023/10/18 17:29:22;;;;;;;2.87;1.30;;;;;;;;;;20723680;28;20269;-76
2023/10/18 17:39:25;;;;;;;2.00;0.90;;;;;;;;;;20746746;28;20638;-77
2023/10/18 17:49:27;;;;;;;2.30;1.17;;;;;;;;;;20707890;28;20223;-76
2023/10/18 17:59:30;;;;;;;2.73;1.30;;;;;;;;;;20712368;28;20226;-75
2023/10/18 18:09:32;;;;;;;1.60;1.00;;;;;;;;;;20742390;28;20223;-76
2023/10/18 18:19:34;;;;;;;2.17;1.30;;;;;;;;;;20704072;28;20235;-76
2023/10/18 18:29:36;;;;;;;2.17;1.40;;;;;;;;;;20741344;28;20212;-75
2023/10/18 18:39:40;;;;;;;2.17;1.40;;;;;;;;;;20745982;28;20218;-76
2023/10/18 18:49:42;;;;;;;1.77;1.17;;;;;;;;;;20728246;28;20218;-75
2023/10/18 18:59:44;;;;;;;3.07;1.33;;;;;;;;;;20716999;28;20219;-76
2023/10/18 19:09:45;;;;;;;2.07;1.50;;;;;;;;;;20716774;28;20227;-75
2023/10/18 19:19:47;;;;;;;2.63;1.63;;;11.70;99.90;;;;;;20746990;28;20222;-75
2023/10/18 19:29:50;;;;;;;1.70;1.07;;;;;;;;;;20732929;28;20223;-76
2023/10/18 19:39:52;;;;;;;2.43;1.37;;;;;;;;;;20702581;28;20266;-75
2023/10/18 19:49:54;;;;;;;2.37;1.47;;;;;;;;;;20737879;28;20242;-75
2023/10/18 19:59:56;;;;;;;1.97;1.37;;;;;;;;;;20710806;28;20662;-75
2023/10/18 20:09:58;;;;;;;2.50;1.40;;;;;;;;;;20752332;28;20698;-77
2023/10/18 20:20:07;;;;;;;2.80;1.73;;;14.10;99.90;;;;;;20717768;28;20289;-76
2023/10/18 20:30:14;;;;;;;2.97;1.60;;;11.30;99.90;;;;;;20736024;28;20261;-77
2023/10/18 20:40:16;;;;;;;3.73;2.00;;;;;;;;;;20727025;28;20713;-78
2023/10/18 20:50:17;;;;;;;2.83;1.90;;;;;;;;;;20721264;28;20211;-77
2023/10/18 21:00:26;;;;;;;2.27;1.50;;;;;;;;;;20745673;28;20211;-77
2023/10/18 21:10:32;;;;;;;2.57;1.50;;;;;;;;;;20710770;28;20223;-76
2023/10/18 21:20:34;;;;;;;3.07;2.10;;;;;;;;;;20748754;28;20611;-78
2023/10/18 21:30:35;;;;;;;2.47;1.70;;;;;;;;;;20744171;28;20207;-78
2023/10/18 21:40:38;;;;;;;2.33;1.60;;;;;;;;;;20743993;28;20215;-77
2023/10/18 21:50:40;;;;;;;2.57;1.57;;;;;;;;;;20751153;28;20275;-78
2023/10/18 22:00:42;;;;;;;2.90;1.90;;;;;;;;;;20742551;28;20230;-78
2023/10/18 22:10:48;;;;;;;3.23;2.00;;;;;;;;;;20718886;28;20277;-78
2023/10/18 22:20:51;;;;;;;3.50;2.30;;;;;;;;;;20750928;28;20227;-78
2023/10/18 22:30:52;;;;;;;3.40;2.50;;;;;;;;;;20735416;28;20273;-78
2023/10/18 22:40:58;;;;;;;4.93;2.70;;;;;;;;;;20737404;28;20285;-78
2023/10/18 22:51:11;;;;;;;4.73;2.53;;;11.00;99.90;;;;;;20734624;28;20576;-78
2023/10/18 23:01:16;;;;;;;4.17;2.60;;;;;;;;;;20732535;28;20293;-78
2023/10/18 23:11:27;;;;;;;4.27;2.33;;;;;;;;;;20756876;28;20230;-77
2023/10/18 23:21:29;;;;;;;4.17;2.10;;;;;;;;;;20723557;28;20711;-77
2023/10/18 23:31:31;;;;;;;3.03;2.13;;;;;;;;;;20746926;28;20223;-78
2023/10/18 23:41:33;;;;;;;4.47;2.60;;;;;;;;;;20756086;28;20595;-78
2023/10/18 23:51:37;;;;;;;3.90;2.70;;;;;;;;;;20730355;28;20231;-77
